Time;durP1;ratioP1;P1;durP2;ratioP2;P2;SDS_P1;SDS_P2;PMS_P1;PMS_P2;Temp;Humidity;BMP_temperature;BMP_pressure;BME280_temperature;BME280_humidity;BME280_pressure;Samples;Min_cycle;Max_cycle;Signal;HPM_P1;HPM_P2
2021/04/16 00:01:23;;;;;;;4.13;2.80;;;;;;;-0.96;64.14;96291.88;4957226;28;20172;-74
2021/04/16 00:03:49;;;;;;;5.87;3.07;;;;;;;-0.98;63.82;96280.88;4957164;28;20196;-73
2021/04/16 00:06:14;;;;;;;5.63;2.90;;;;;;;-1.09;64.25;96284.75;4956233;28;20181;-72
2021/04/16 00:08:40;;;;;;;5.13;3.07;;;;;;;-1.18;64.85;96280.84;4957168;28;20700;-73
2021/04/16 00:11:14;;;;;;;4.33;3.00;;;;;;;-1.25;64.92;96271.75;4974510;28;20180;-74
2021/04/16 00:13:40;;;;;;;4.77;3.13;;;;;;;-1.21;64.83;96275.88;4989229;28;20196;-73
2021/04/16 00:16:07;;;;;;;4.93;4.00;;;;;;;-1.24;64.77;96279.34;4956737;28;20184;-73
2021/04/16 00:18:32;;;;;;;10.10;3.10;;;;;;;-1.28;65.65;96269.34;4972927;28;20215;-73
2021/04/16 00:20:58;;;;;;;2.90;2.60;;;;;;;-1.35;65.19;96273.81;4956960;28;20206;-73
2021/04/16 00:23:24;;;;;;;3.30;3.00;;;;;;;-1.26;64.51;96272.66;4989203;28;20184;-73
2021/04/16 00:25:50;;;;;;;4.33;2.80;;;;;;;-1.35;65.24;96273.00;4956577;28;20203;-73
2021/04/16 00:28:15;;;;;;;4.77;2.97;;;;;;;-1.40;65.66;96269.81;4956700;28;20195;-73
2021/04/16 00:30:44;;;;;;;5.70;3.00;;;;;;;-1.42;65.39;96265.56;4988714;28;20595;-73
2021/04/16 00:33:10;;;;;;;4.53;2.90;;;;;;;-1.52;66.46;96260.88;4988977;28;20206;-73
2021/04/16 00:35:35;;;;;;;4.83;2.93;;;;;;;-1.59;66.08;96257.75;4956309;28;20570;-73
2021/04/16 00:38:02;;;;;;;5.57;2.80;;;;;;;-1.61;66.43;96256.13;4956574;28;20210;-72
2021/04/16 00:40:41;;;;;;;4.27;2.70;;;;;;;-1.62;66.35;96254.47;4972593;28;20191;-73
2021/04/16 00:43:07;;;;;;;6.77;3.20;;;;;;;-1.37;65.90;96249.31;4973781;28;20207;-72
2021/04/16 00:45:35;;;;;;;4.57;3.07;;;;;;;-1.38;65.57;96242.53;4988416;28;20625;-72
2021/04/16 00:48:04;;;;;;;4.53;2.90;;;;;;;-1.44;65.97;96252.06;4988754;28;20683;-72
2021/04/16 00:50:39;;;;;;;5.00;3.10;;;;;;;-1.44;65.36;96241.06;4956601;28;20562;-72
2021/04/16 00:53:05;;;;;;;3.10;2.67;;;;;;;-1.44;65.69;96238.50;4988371;28;20183;-72
2021/04/16 00:55:30;;;;;;;4.63;2.90;;;;;;;-1.44;65.96;96238.50;4973109;28;20214;-72
2021/04/16 00:57:56;;;;;;;4.43;3.07;;;;;;;-1.54;65.90;96243.13;4975413;28;20202;-71
2021/04/16 01:00:23;;;;;;;4.73;2.87;;;;;;;-1.49;66.26;96238.69;4975808;28;20179;-74
2021/04/16 01:02:48;;;;;;;3.33;2.90;;;;;;;-1.58;66.11;96233.94;4975461;28;20652;-73
2021/04/16 01:05:14;;;;;;;4.10;3.03;;;;;;;-1.68;66.53;96237.69;4975138;28;20328;-72
2021/04/16 01:07:39;;;;;;;4.67;3.03;;;;;;;-1.73;66.48;96237.06;4991423;28;20186;-72
2021/04/16 01:10:06;;;;;;;5.40;3.40;;;;;;;-1.83;67.88;96231.47;4975400;28;20214;-72
2021/04/16 01:12:32;;;;;;;3.87;3.00;;;;;;;-1.93;68.00;96231.88;4975192;28;20677;-72
2021/04/16 01:15:04;;;;;;;4.27;2.80;;;;;;;-1.96;68.11;96232.78;4991077;28;20203;-73
2021/04/16 01:17:29;;;;;;;4.47;2.90;;;;;;;-2.03;68.73;96234.75;4976082;28;20206;-72
2021/04/16 01:20:18;;;;;;;5.87;3.17;;;;;;;-2.08;68.88;96226.44;4975154;28;20546;-72
2021/04/16 01:22:55;;;;;;;4.13;2.90;;;;;;;-2.13;68.66;96233.38;4991276;28;20759;-73
2021/04/16 01:25:21;;;;;;;3.80;2.83;;;;;;;-2.15;68.84;96230.06;4974992;28;20714;-73
2021/04/16 01:27:47;;;;;;;6.93;3.30;;;;;;;-2.25;69.26;96233.81;4991242;28;20186;-72
2021/04/16 01:30:20;;;;;;;5.90;3.40;;;;;;;-2.28;69.57;96223.78;4975086;28;20233;-73
2021/04/16 01:32:45;;;;;;;5.23;3.27;;;;;;;-2.31;69.73;96231.47;4992282;28;20251;-72
2021/04/16 01:35:15;;;;;;;3.47;2.83;;;;;;;-2.32;70.00;96235.75;4974573;28;20285;-73
2021/04/16 01:37:41;;;;;;;4.33;2.87;;;;;;;-2.29;69.26;96228.03;4991018;28;20211;-72
2021/04/16 01:40:07;;;;;;;4.50;3.33;;;;;;;-2.31;69.72;96231.47;4992292;28;20557;-73
2021/04/16 01:42:33;;;;;;;4.13;2.80;;;;;;;-2.33;69.01;96228.16;4974707;28;20237;-73
2021/04/16 01:44:58;;;;;;;4.23;3.07;;;;;;;-2.36;69.86;96225.75;4991905;28;20194;-71
2021/04/16 01:47:23;;;;;;;3.07;2.77;;;;;;;-2.38;70.16;96222.44;4992171;28;20207;-73
2021/04/16 01:49:51;;;;;;;3.53;2.90;;;;;;;-2.41;69.90;96227.59;4974783;28;20250;-73
2021/04/16 01:52:23;;;;;;;3.20;2.90;;;;;;;-2.37;69.37;96219.81;4975055;28;20190;-72
2021/04/16 01:54:50;;;;;;;2.77;2.40;;;;;;;-2.40;70.12;96214.00;4974564;28;20281;-73
2021/04/16 01:57:28;;;;;;;5.57;3.20;;;;;;;-2.42;70.31;96215.78;4974742;28;20211;-73
2021/04/16 01:59:54;;;;;;;4.20;3.27;;;;;;;-2.43;70.13;96211.56;4967328;28;20718;-73
2021/04/16 02:02:25;;;;;;;3.73;2.87;;;;;;;-2.48;70.19;96210.88;4991907;28;20183;-73
2021/04/16 02:04:52;;;;;;;5.77;3.13;;;;;;;-2.51;70.52;96216.09;4990564;28;20201;-73
2021/04/16 02:07:17;;;;;;;3.70;2.90;;;;;;;-2.56;70.22;96208.63;4974698;28;20183;-73
2021/04/16 02:09:43;;;;;;;5.07;2.77;;;;;;;-2.59;70.39;96204.47;4990843;28;20179;-73
2021/04/16 02:12:11;;;;;;;5.03;3.27;;;;;;;-2.62;71.10;96207.13;4974724;28;20183;-73
2021/04/16 02:14:37;;;;;;;4.00;3.13;;;;;;;-2.55;71.44;96201.84;4991643;28;20191;-73
2021/04/16 02:17:16;;;;;;;5.77;3.00;;;;;;;-2.50;70.87;96207.56;4974307;28;20274;-73
2021/04/16 02:19:42;;;;;;;3.80;3.10;;;;;;;-2.50;70.39;96208.41;4974858;28;20181;-73
2021/04/16 02:22:09;;;;;;;7.40;3.67;;;;;;;-2.53;70.57;96205.16;4974804;28;20168;-73
2021/04/16 02:24:34;;;;;;;6.27;3.60;;;;;;;-2.54;70.74;96203.50;5006614;28;20691;-72
2021/04/16 02:27:00;;;;;;;4.13;3.13;;;;;;;-2.56;70.98;96206.09;4974432;28;20191;-73
2021/04/16 02:29:26;;;;;;;8.30;3.33;;;;;;;-2.55;71.17;96206.91;4977622;28;20679;-73
2021/04/16 02:31:51;;;;;;;5.83;3.43;;;;;;;-2.55;71.19;96199.28;4994386;28;20183;-73
2021/04/16 02:34:28;;;;;;;5.77;4.03;;;;;;;-2.59;71.75;96209.53;4978079;28;20231;-72
2021/04/16 02:36:57;;;;;;;5.93;4.30;;;;;;;-2.44;71.30;96202.28;4978146;28;20236;-73
2021/04/16 02:39:22;;;;;;;5.67;3.53;;;;;;;-2.15;70.16;96189.34;4994289;28;20204;-73
2021/04/16 02:41:48;;;;;;;9.83;5.30;;;;;;;-2.24;70.41;96189.69;4978284;28;20258;-73
2021/04/16 02:44:13;;;;;;;6.47;3.93;;;;;;;-2.23;70.32;96187.97;4977784;28;20212;-73
2021/04/16 02:46:39;;;;;;;10.33;5.20;;;;;;;-2.22;70.56;96189.63;4978039;28;20690;-73
2021/04/16 02:49:04;;;;;;;7.73;4.23;;;;;;;-2.28;70.90;96193.25;4978049;28;20714;-73
2021/04/16 02:51:30;;;;;;;5.90;3.63;;;;;;;-2.26;70.81;96191.47;4977926;28;20183;-73
2021/04/16 02:53:55;;;;;;;8.30;5.00;;;;;;;-2.26;70.38;96190.63;4977939;28;20235;-73
2021/04/16 02:56:21;;;;;;;4.07;3.33;;;;;;;-2.31;71.23;96191.63;4994044;28;20210;-73
2021/04/16 02:58:47;;;;;;;5.10;3.87;;;;;;;-2.36;70.80;96187.59;4977605;28;20263;-73
2021/04/16 03:01:12;;;;;;;5.47;3.40;;;;;;;-2.37;70.52;96191.84;4995223;28;20253;-73
2021/04/16 03:03:38;;;;;;;6.13;3.63;;;;;;;-2.32;71.30;96194.22;4977633;28;20185;-73
2021/04/16 03:06:05;;;;;;;5.23;3.57;;;;;;;-2.32;71.46;96191.66;4994915;28;20198;-73
2021/04/16 03:08:30;;;;;;;3.97;3.53;;;;;;;-2.26;70.87;96186.38;4977730;28;20228;-73
2021/04/16 03:10:56;;;;;;;6.07;4.63;;;;;;;-2.34;70.97;96179.00;4977775;28;20241;-73
2021/04/16 03:13:21;;;;;;;4.87;3.43;;;;;;;-2.42;71.58;96190.34;4993846;28;20647;-73
2021/04/16 03:15:46;;;;;;;6.90;3.83;;;;;;;-2.36;72.17;96180.78;4995024;28;20242;-73
2021/04/16 03:18:12;;;;;;;7.47;4.10;;;;;;;-2.33;72.14;96178.13;4994795;28;20288;-73
2021/04/16 03:20:38;;;;;;;7.00;3.77;;;;;;;-2.31;72.27;96178.88;4977498;28;20195;-73
2021/04/16 03:23:03;;;;;;;5.97;4.27;;;;;;;-2.35;71.75;96174.81;4993220;28;20191;-74
2021/04/16 03:25:29;;;;;;;6.27;3.90;;;;;;;-2.41;71.92;96179.28;4977189;28;20241;-73
2021/04/16 03:27:54;;;;;;;8.20;4.70;;;;;;;-2.42;72.08;96181.00;4993217;28;20279;-73
2021/04/16 03:30:22;;;;;;;5.50;4.13;;;;;;;-2.36;71.71;96169.78;4977452;28;20178;-73
2021/04/16 03:32:47;;;;;;;6.10;4.87;;;;;;;-2.38;71.90;96177.47;4977079;28;20188;-73
2021/04/16 03:35:13;;;;;;;5.53;3.73;;;;;;;-2.42;72.13;96185.25;4976789;28;20610;-73
2021/04/16 03:37:40;;;;;;;7.53;4.50;;;;;;;-2.47;72.85;96176.94;4993579;28;20219;-74
2021/04/16 03:40:06;;;;;;;6.17;4.43;;;;;;;-2.54;72.38;96178.06;4975899;28;20189;-73
2021/04/16 03:42:32;;;;;;;6.50;4.77;;;;;;;-2.64;72.68;96175.84;4993052;28;20187;-74
2021/04/16 03:44:57;;;;;;;6.60;4.50;;;;;;;-2.61;73.31;96180.81;4994304;28;20204;-73
2021/04/16 03:47:22;;;;;;;7.63;5.03;;;;;;;-2.68;72.89;96179.34;4976843;28;20210;-72
2021/04/16 03:49:47;;;;;;;8.90;5.37;;;;;;;-2.74;73.79;96174.50;4976913;28;20277;-73
2021/04/16 03:52:13;;;;;;;5.60;4.37;;;;;;;-2.81;73.12;96178.13;4994210;28;20235;-74
2021/04/16 03:54:39;;;;;;;9.60;4.87;;;;;;;-2.87;73.56;96168.97;4976658;28;20238;-74
2021/04/16 03:57:08;;;;;;;7.67;4.50;;;;;;;-2.93;73.13;96184.41;4992897;28;20564;-74
2021/04/16 03:59:33;;;;;;;6.67;4.47;;;;;;;-2.94;73.38;96181.94;4976944;28;20651;-73
2021/04/16 04:01:58;;;;;;;8.67;4.70;;;;;;;-3.01;74.03;96178.75;4976578;28;20208;-73
2021/04/16 04:04:24;;;;;;;7.57;5.33;;;;;;;-3.05;73.71;96177.22;4976441;28;20210;-74
2021/04/16 04:06:50;;;;;;;6.13;4.67;;;;;;;-3.04;74.05;96181.41;4994037;28;20249;-73
2021/04/16 04:09:15;;;;;;;8.40;4.57;;;;;;;-3.09;74.23;96177.34;4976658;28;20686;-74
2021/04/16 04:11:41;;;;;;;6.70;5.17;;;;;;;-3.13;73.95;96180.00;4976545;28;20273;-74
2021/04/16 04:14:06;;;;;;;7.60;4.70;;;;;;;-3.07;74.31;96183.22;4976415;28;20229;-73
2021/04/16 04:16:47;;;;;;;8.13;5.40;;;;;;;-3.13;74.01;96182.53;4976064;28;20179;-74
2021/04/16 04:19:12;;;;;;;9.43;5.73;;;;;;;-3.19;74.13;96185.25;4992650;28;20294;-73
2021/04/16 04:21:37;;;;;;;8.27;5.80;;;;;;;-3.19;74.26;96181.91;4993746;28;20223;-73
2021/04/16 04:24:03;;;;;;;8.43;5.77;;;;;;;-3.24;74.88;96179.53;4993553;28;20202;-73
2021/04/16 04:26:28;;;;;;;10.03;5.63;;;;;;;-3.27;74.27;96189.78;4975902;28;20497;-73
2021/04/16 04:28:53;;;;;;;7.43;5.90;;;;;;;-3.27;74.48;96182.16;4993317;28;20186;-74
2021/04/16 04:31:19;;;;;;;6.90;5.43;;;;;;;-3.28;74.87;96190.63;4993535;28;20584;-74
2021/04/16 04:33:44;;;;;;;10.33;5.90;;;;;;;-3.28;74.91;96187.28;4976062;28;20213;-73
2021/04/16 04:36:09;;;;;;;6.60;5.43;;;;;;;-3.25;74.54;96190.56;4991964;28;20184;-74
2021/04/16 04:38:35;;;;;;;10.53;6.00;;;;;;;-3.20;75.31;96191.22;4993339;28;20220;-73
2021/04/16 04:41:00;;;;;;;9.67;6.63;;;;;;;-3.14;75.04;96195.28;4993391;28;20178;-72
2021/04/16 04:43:25;;;;;;;8.60;6.77;;;;;;;-3.10;75.45;96191.75;4975824;28;20240;-73
2021/04/16 04:45:50;;;;;;;10.27;7.30;;;;;;;-3.07;75.00;96190.84;4991673;28;20203;-73
2021/04/16 04:48:16;;;;;;;8.73;6.00;;;;;;;-3.04;74.72;96194.13;4975879;28;20530;-73
2021/04/16 04:50:41;;;;;;;11.73;6.83;;;;;;;-3.04;74.84;96200.91;4992567;28;20186;-73
2021/04/16 04:53:06;;;;;;;11.53;7.37;;;;;;;-3.00;74.62;96192.31;4993190;28;20195;-73
2021/04/16 04:55:33;;;;;;;10.73;6.67;;;;;;;-2.88;74.23;96199.53;4991565;28;20245;-73
2021/04/16 04:57:58;;;;;;;10.50;6.83;;;;;;;-2.62;74.35;96199.50;4991735;28;20213;-72
2021/04/16 05:00:25;;;;;;;8.73;5.87;;;;;;;-2.27;73.73;96187.25;4975596;28;20563;-72
2021/04/16 05:02:50;;;;;;;7.80;6.13;;;;;;;-2.07;73.06;96200.09;4991748;28;20193;-72
2021/04/16 05:05:16;;;;;;;6.50;5.80;;;;;;;-2.05;72.49;96203.41;4991320;28;20198;-72
2021/04/16 05:07:42;;;;;;;7.07;5.67;;;;;;;-1.97;73.08;96195.50;4991783;28;20273;-74
2021/04/16 05:10:08;;;;;;;7.87;5.60;;;;;;;-1.98;72.79;96198.09;4992630;28;20190;-76
2021/04/16 05:12:34;;;;;;;7.43;5.53;;;;;;;-1.99;72.37;96197.28;5007861;28;20178;-73
2021/04/16 05:14:59;;;;;;;7.47;5.43;;;;;;;-1.89;72.45;96200.31;4959352;28;20214;-73
2021/04/16 05:17:25;;;;;;;9.43;5.97;;;;;;;-1.90;72.63;96196.09;4955068;28;20208;-73
2021/04/16 05:19:50;;;;;;;10.17;6.40;;;;;;;-1.85;73.13;96199.31;4973557;28;20190;-73
2021/04/16 05:22:15;;;;;;;7.53;6.27;;;;;;;-1.78;74.12;96195.63;4955813;28;20287;-73
2021/04/16 05:24:41;;;;;;;8.07;6.00;;;;;;;-1.76;73.97;96196.44;4955555;28;20207;-73
2021/04/16 05:27:12;;;;;;;7.17;5.93;;;;;;;-1.77;74.55;96193.06;4966447;28;20804;-73
2021/04/16 05:29:39;;;;;;;9.80;6.03;;;;;;;-1.60;74.79;96191.56;4972984;28;20215;-72
2021/04/16 05:32:04;;;;;;;7.23;6.17;;;;;;;-1.65;75.05;96193.47;4972876;28;20186;-73
2021/04/16 05:34:30;;;;;;;8.90;5.90;;;;;;;-1.67;75.68;96200.34;4987359;28;20212;-73
2021/04/16 05:36:55;;;;;;;7.23;6.43;;;;;;;-1.62;75.68;96203.53;4955669;28;20184;-74
2021/04/16 05:39:21;;;;;;;10.20;7.30;;;;;;;-1.62;76.31;96199.28;4971588;28;20190;-74
2021/04/16 05:41:46;;;;;;;6.93;6.20;;;;;;;-1.54;76.23;96192.19;4972862;28;20555;-74
2021/04/16 05:44:12;;;;;;;8.13;6.33;;;;;;;-1.43;76.17;96201.94;4971410;28;20230;-73
2021/04/16 05:46:37;;;;;;;7.50;6.17;;;;;;;-1.45;76.00;96202.00;4955474;28;20184;-73
2021/04/16 05:49:03;;;;;;;9.57;7.00;;;;;;;-1.47;76.79;96203.78;4955050;28;20207;-74
2021/04/16 05:51:29;;;;;;;8.37;6.70;;;;;;;-1.30;76.15;96209.97;4955673;28;20175;-74
2021/04/16 05:53:54;;;;;;;9.20;6.77;;;;;;;-1.36;76.38;96205.09;4972595;28;20218;-74
2021/04/16 05:56:20;;;;;;;8.43;6.50;;;;;;;-1.31;76.93;96214.22;4955274;28;20182;-74
2021/04/16 05:58:45;;;;;;;7.80;7.00;;;;;;;-1.32;76.64;96211.75;4955306;28;20305;-73
2021/04/16 06:01:10;;;;;;;9.23;7.37;;;;;;;-1.25;76.37;96215.69;4955470;28;20183;-73
2021/04/16 06:03:37;;;;;;;9.50;7.27;;;;;;;-1.31;76.53;96221.03;4986523;28;20699;-74
2021/04/16 06:06:03;;;;;;;12.43;7.53;;;;;;;-1.20;76.10;96217.19;4971145;28;20180;-74
2021/04/16 06:08:28;;;;;;;10.37;7.23;;;;;;;-1.21;75.94;96219.78;4955362;28;20253;-73
2021/04/16 06:10:56;;;;;;;9.37;7.13;;;;;;;-1.22;75.87;96223.25;4955250;28;20190;-73
2021/04/16 06:13:22;;;;;;;9.83;7.67;;;;;;;-1.29;76.16;96220.09;4959255;28;20187;-75
2021/04/16 06:15:47;;;;;;;12.07;7.70;;;;;;;-1.43;76.33;96224.88;4971946;28;20338;-74
2021/04/16 06:18:13;;;;;;;11.87;7.53;;;;;;;-1.42;76.07;96222.25;4972210;28;20203;-73
2021/04/16 06:20:38;;;;;;;10.43;7.37;;;;;;;-1.28;75.55;96223.47;4955180;28;20187;-75
2021/04/16 06:23:03;;;;;;;9.07;7.73;;;;;;;-1.26;75.70;96219.97;4943563;28;20233;-76
2021/04/16 06:25:33;;;;;;;9.30;7.23;;;;;;;-1.28;76.45;96219.19;4990670;28;20797;-75
2021/04/16 06:27:59;;;;;;;10.27;7.87;;;;;;;-1.30;76.37;96225.25;4993818;28;20189;-76
2021/04/16 06:30:24;;;;;;;13.63;7.53;;;;;;;-1.21;76.10;96225.72;4993445;28;20185;-76
2021/04/16 06:33:12;;;;;;;11.70;7.23;;;;;;;-1.15;76.11;96220.41;4993540;28;20196;-75
2021/04/16 06:35:40;;;;;;;9.57;7.17;;;;;;;-1.02;75.24;96215.63;4993677;28;20264;-75
2021/04/16 06:38:05;;;;;;;7.97;6.83;;;;;;;-0.99;74.73;96220.59;4994256;28;20722;-74
2021/04/16 06:40:31;;;;;;;9.70;8.00;;;;;;;-1.10;74.71;96212.53;4994167;28;20209;-73
2021/04/16 06:42:57;;;;;;;12.37;8.23;;;;;;;-1.09;74.79;96215.94;4994445;28;20256;-75
2021/04/16 06:45:27;;;;;;;10.83;8.20;;;;;;;-1.06;75.10;96213.25;5009641;28;20207;-74
2021/04/16 06:48:01;;;;;;;8.93;7.40;;;;;;;-1.07;75.25;96216.69;4993782;28;20171;-73
2021/04/16 06:50:30;;;;;;;13.90;7.83;;;;;;;-0.91;74.64;96213.47;4993667;28;20204;-74
2021/04/16 06:53:04;;;;;;;8.27;7.33;;;;;;;-0.83;74.47;96213.16;4993866;28;20631;-74
2021/04/16 06:55:53;;;;;;;7.63;6.87;;;;;;;-0.74;73.89;96206.84;4977730;28;20209;-75
2021/04/16 06:58:25;;;;;;;9.60;6.93;;;;;;;-0.58;73.83;96208.72;4993718;28;20218;-74
2021/04/16 07:01:24;;;;;;;12.60;8.43;;;;;;;-0.74;74.11;96209.41;5010069;28;20190;-75
2021/04/16 07:04:14;;;;;;;14.03;11.00;;;;;;;-0.51;73.93;96219.50;4983330;28;20212;-75
2021/04/16 07:06:39;;;;;;;9.23;8.17;;;;;;;-0.46;73.95;96219.28;5010666;28;20182;-77
2021/04/16 07:09:07;;;;;;;9.30;7.97;;;;;;;-0.52;74.18;96217.00;4993501;28;20273;-75
2021/04/16 07:11:36;;;;;;;16.30;10.50;;;;;;;-0.65;74.97;96214.13;5011078;28;20266;-76
2021/04/16 07:14:03;;;;;;;10.23;8.83;;;;;;;-0.68;75.02;96219.38;5011831;28;20194;-75
2021/04/16 07:16:31;;;;;;;12.07;9.90;;;;;;;-0.56;75.09;96223.94;4996408;28;20282;-75
2021/04/16 07:19:00;;;;;;;11.50;7.53;;;;;;;-0.33;74.43;96221.28;5002495;28;20292;-75
2021/04/16 07:21:25;;;;;;;11.10;8.20;;;;;;;-0.35;74.47;96228.16;4996222;28;20208;-75
2021/04/16 07:23:53;;;;;;;10.27;8.00;;;;;;;-0.25;74.24;96228.59;4987787;28;20638;-75
2021/04/16 07:26:40;;;;;;;10.80;8.43;;;;;;;-0.45;74.72;96221.78;4992616;28;20648;-75
2021/04/16 07:29:06;;;;;;;9.57;7.70;;;;;;;-0.21;74.23;96222.47;5024658;28;20210;-77
2021/04/16 07:31:53;;;;;;;10.80;8.10;;;;;;;-0.40;74.80;96224.13;5010144;28;20590;-77
2021/04/16 07:34:28;;;;;;;11.80;8.00;;;;;;;-0.36;75.40;96226.47;4997075;28;20212;-79
2021/04/16 07:36:53;;;;;;;12.43;7.93;;;;;;;-0.32;74.78;96225.47;5008233;28;20183;-75
2021/04/16 07:39:32;;;;;;;10.87;8.13;;;;;;;-0.33;75.13;96223.81;4996200;28;20210;-75
2021/04/16 07:42:09;;;;;;;12.80;8.97;;;;;;;-0.20;74.65;96228.38;4996019;28;20186;-75
2021/04/16 07:44:39;;;;;;;9.07;8.10;;;;;;;-0.12;75.00;96221.22;5012723;28;20249;-73
2021/04/16 07:47:15;;;;;;;10.40;8.17;;;;;;;-0.32;75.95;96222.09;5009710;28;20186;-75
2021/04/16 07:49:53;;;;;;;8.53;7.67;;;;;;;-0.24;75.03;96219.22;4996116;28;20221;-75
2021/04/16 07:52:46;;;;;;;11.20;8.87;;;;;;;0.19;74.19;96224.13;4987527;28;20175;-75
2021/04/16 07:55:29;;;;;;;8.87;7.97;;;;;;;0.40;73.29;96229.16;4991670;28;20258;-75
2021/04/16 07:58:03;;;;;;;8.60;7.43;;;;;;;0.43;73.09;96227.28;4978923;28;20345;-76
2021/04/16 08:00:37;;;;;;;9.67;7.40;;;;;;;0.23;73.40;96228.19;5013209;28;20246;-75
2021/04/16 08:03:18;;;;;;;10.40;7.33;;;;;;;0.31;73.29;96234.69;4988799;28;20328;-75
2021/04/16 08:05:46;;;;;;;8.70;7.13;;;;;;;0.30;73.38;96230.47;4991125;28;20202;-74
2021/04/16 08:08:14;;;;;;;11.40;7.40;;;;;;;0.44;72.96;96225.53;4995335;28;20231;-74
2021/04/16 08:10:44;;;;;;;7.07;6.33;;;;;;;0.62;72.46;96227.28;5012771;28;20179;-74
2021/04/16 08:13:17;;;;;;;11.50;7.20;;;;;;;0.59;72.55;96231.69;4984051;28;20196;-74
2021/04/16 08:15:43;;;;;;;7.63;6.53;;;;;;;0.60;72.88;96236.72;5012121;28;20702;-75
2021/04/16 08:18:31;;;;;;;7.80;5.93;;;;;;;0.53;71.20;96232.78;5009280;28;20195;-75
2021/04/16 08:21:04;;;;;;;7.37;5.87;;;;;;;0.38;72.26;96234.34;4985586;28;20236;-75
2021/04/16 08:23:46;;;;;;;8.00;6.07;;;;;;;0.25;71.79;96239.16;4992906;28;20238;-75
2021/04/16 08:26:13;;;;;;;6.27;5.67;;;;;;;0.19;72.49;96236.06;5000999;28;20217;-75
2021/04/16 08:28:59;;;;;;;8.03;5.90;;;;;;;0.51;72.58;96242.25;4989633;28;20656;-75
2021/04/16 08:31:33;;;;;;;7.13;6.20;;;;;;;0.60;71.87;96239.28;4995289;28;20203;-75
2021/04/16 08:34:13;;;;;;;8.00;6.67;;;;;;;0.77;72.06;96241.91;4980130;28;20735;-74
2021/04/16 08:36:41;;;;;;;8.17;5.90;;;;;;;0.63;71.79;96246.00;4996127;28;20210;-74
2021/04/16 08:39:15;;;;;;;7.03;6.33;;;;;;;0.66;71.49;96244.13;4986371;28;20317;-75
2021/04/16 08:42:05;;;;;;;6.87;6.10;;;;;;;0.82;71.63;96249.38;4995193;28;20200;-75
2021/04/16 08:44:57;;;;;;;7.77;6.00;;;;;;;0.85;71.72;96249.22;4987455;28;20219;-75
2021/04/16 08:47:30;;;;;;;6.67;5.97;;;;;;;0.82;70.87;96254.47;5009702;28;20217;-74
2021/04/16 08:49:55;;;;;;;8.77;6.50;;;;;;;0.81;71.16;96247.72;4988313;28;20194;-74
2021/04/16 08:52:50;;;;;;;7.03;6.00;;;;;;;0.63;70.84;96240.91;4995052;28;20198;-74
2021/04/16 08:55:39;;;;;;;6.87;6.17;;;;;;;0.82;70.84;96250.19;4995497;28;20199;-75
2021/04/16 08:58:31;;;;;;;6.43;5.77;;;;;;;0.96;70.12;96241.03;4995174;28;20205;-76
2021/04/16 09:00:58;;;;;;;6.77;5.87;;;;;;;0.63;71.31;96243.44;4974683;28;20586;-75
2021/04/16 09:03:39;;;;;;;7.07;5.83;;;;;;;0.72;71.21;96245.59;5011832;28;20547;-75
2021/04/16 09:06:05;;;;;;;7.50;5.40;;;;;;;0.94;70.20;96251.34;5007146;28;20179;-75
2021/04/16 09:08:36;;;;;;;7.83;6.03;;;;;;;1.06;69.48;96248.22;4994646;28;20210;-75
2021/04/16 09:11:04;;;;;;;6.90;5.23;;;;;;;1.16;69.26;96246.06;5007687;28;20186;-75
2021/04/16 09:13:32;;;;;;;5.37;4.87;;;;;;;1.58;67.95;96249.97;4989540;28;20270;-76
2021/04/16 09:16:17;;;;;;;6.87;5.63;;;;;;;1.91;66.85;96250.84;5008180;28;20202;-76
2021/04/16 09:18:45;;;;;;;5.70;5.00;;;;;;;1.79;65.97;96248.91;5006247;28;20211;-76
2021/04/16 09:21:26;;;;;;;6.10;5.50;;;;;;;2.32;65.74;96240.19;4994369;28;20187;-76
2021/04/16 09:23:54;;;;;;;5.87;4.93;;;;;;;2.78;65.45;96246.25;5009802;28;20302;-75
2021/04/16 09:26:44;;;;;;;5.83;5.03;;;;;;;2.84;63.24;96243.38;4994226;28;20587;-75
2021/04/16 09:29:27;;;;;;;5.70;5.20;;;;;;;2.99;63.57;96249.38;5006570;28;20662;-74
2021/04/16 09:32:02;;;;;;;4.77;4.30;;;;;;;3.12;59.52;96244.41;5011141;28;20672;-74
2021/04/16 09:34:47;;;;;;;6.13;4.67;;;;;;;3.11;61.01;96243.59;4994046;28;20674;-75
2021/04/16 09:37:25;;;;;;;4.53;4.03;;;;;;;2.66;62.06;96240.97;5008208;28;20207;-76
2021/04/16 09:40:05;;;;;;;5.20;4.70;;;;;;;2.03;63.74;96244.25;4985171;28;20195;-75
2021/04/16 09:42:37;;;;;;;13.33;10.47;;;;;;;2.15;62.76;96246.19;5009027;28;20480;-75
2021/04/16 09:45:08;;;;;;;5.50;4.57;;;;;;;2.04;63.68;96250.22;4977002;28;20408;-75
2021/04/16 09:48:01;;;;;;;8.57;6.43;;;;;;;2.21;62.92;96250.19;4993964;28;20554;-75
2021/04/16 09:50:30;;;;;;;5.67;4.50;;;;;;;2.30;61.84;96246.28;5023622;28;20230;-76
2021/04/16 09:53:19;;;;;;;8.20;5.60;;;;;;;2.07;62.72;96247.50;5001820;28;20609;-76
2021/04/16 09:56:04;;;;;;;7.37;5.67;;;;;;;2.21;61.69;96245.91;4994449;28;20217;-75
2021/04/16 09:58:32;;;;;;;5.00;4.47;;;;;;;2.21;61.40;96239.94;5009230;28;20730;-74
2021/04/16 10:00:57;;;;;;;5.80;5.17;;;;;;;2.24;61.83;96245.72;5001658;28;20187;-74
2021/04/16 10:03:31;;;;;;;4.87;4.27;;;;;;;2.37;61.39;96245.91;5006661;28;20187;-75
2021/04/16 10:05:58;;;;;;;7.60;5.80;;;;;;;2.59;60.64;96231.97;5006628;28;20341;-76
2021/04/16 10:08:25;;;;;;;6.80;5.23;;;;;;;2.46;61.37;96250.53;4990629;28;20535;-76
2021/04/16 10:10:51;;;;;;;15.43;9.73;;;;;;;2.26;61.48;96243.06;4998639;28;20194;-73
2021/04/16 10:13:20;;;;;;;5.60;4.53;;;;;;;2.44;59.97;96239.53;4993472;28;20189;-74
2021/04/16 10:15:54;;;;;;;26.20;15.17;;;;;;;2.79;59.72;96241.97;5010838;28;20589;-74
2021/04/16 10:18:40;;;;;;;10.90;7.77;;;;;;;3.35;57.98;96241.38;4986390;28;20699;-75
2021/04/16 10:21:24;;;;;;;7.83;5.50;;;;;;;3.39;56.70;96236.91;4990166;28;20231;-75
2021/04/16 10:51:13;;;;;;;4.97;4.30;;;;;;;4.20;55.07;96225.28;4932814;29;20189;-74
2021/04/16 12:39:31;;;;;;;6.50;4.70;;;;;;;2.34;59.86;96212.75;4994878;28;20698;-81
2021/04/16 12:41:58;;;;;;;5.60;5.00;;;;;;;2.17;60.46;96210.25;4993327;28;20195;-78
2021/04/16 12:44:45;;;;;;;5.50;4.90;;;;;;;2.27;60.23;96209.69;4985650;28;20322;-80
2021/04/16 12:47:10;;;;;;;5.33;4.83;;;;;;;2.46;59.06;96204.38;5020714;28;20183;-79
2021/04/16 12:49:35;;;;;;;5.80;4.80;;;;;;;2.52;59.80;96200.69;5003952;28;20594;-81
2021/04/16 12:52:05;;;;;;;5.80;4.60;;;;;;;2.72;59.37;96202.16;4994440;28;20266;-79
2021/04/16 12:54:38;;;;;;;5.93;4.80;;;;;;;2.83;59.10;96202.41;4993210;28;20330;-79
2021/04/16 12:57:04;;;;;;;5.07;4.57;;;;;;;2.77;59.63;96208.69;4973989;28;20240;-78
2021/04/16 12:59:29;;;;;;;5.13;4.37;;;;;;;2.54;59.89;96204.81;4986198;28;20239;-78
2021/04/16 13:01:55;;;;;;;6.67;4.87;;;;;;;2.60;59.97;96200.28;4988411;28;20233;-79
2021/04/16 13:04:22;;;;;;;6.50;4.83;;;;;;;2.71;59.65;96203.91;4968963;28;20262;-77
2021/04/16 13:06:49;;;;;;;5.60;5.00;;;;;;;2.73;59.27;96193.56;4983008;28;20188;-78
2021/04/16 13:09:17;;;;;;;5.57;4.97;;;;;;;2.58;59.53;96202.94;4970046;28;20179;-78
2021/04/16 13:11:42;;;;;;;5.73;5.23;;;;;;;2.59;60.35;96194.31;4988331;28;20181;-78
2021/04/16 13:14:08;;;;;;;5.23;4.73;;;;;;;2.74;59.51;96195.19;4974178;28;20978;-78
2021/04/16 13:16:35;;;;;;;6.37;3.97;;;;;;;2.79;59.05;96195.78;4988293;28;20182;-78
2021/04/16 13:19:05;;;;;;;5.07;4.57;;;;;;;2.86;58.59;96186.03;4999732;28;20745;-77
2021/04/16 13:21:37;;;;;;;5.20;4.70;;;;;;;2.96;58.88;96193.13;4988502;28;21417;-77
2021/04/16 13:24:03;;;;;;;8.43;4.93;;;;;;;2.86;59.19;96196.28;4988709;28;20242;-78
2021/04/16 13:26:29;;;;;;;5.30;4.30;;;;;;;2.92;58.11;96189.09;4987290;28;20663;-78
2021/04/16 13:28:55;;;;;;;6.13;5.00;;;;;;;2.95;57.72;96188.06;4987879;28;20198;-78
2021/04/16 13:31:20;;;;;;;8.57;6.70;;;;;;;3.03;57.98;96189.31;4986499;28;20884;-78
2021/04/16 13:33:47;;;;;;;5.23;4.43;;;;;;;3.10;57.28;96182.09;4998020;28;20183;-78
2021/04/16 13:36:15;;;;;;;7.73;4.07;;;;;;;3.23;57.42;96184.78;4996379;28;20267;-78
2021/04/16 13:38:41;;;;;;;5.80;3.63;;;;;;;3.18;56.48;96176.50;5019792;28;20245;-78
2021/04/16 13:41:07;;;;;;;5.00;4.33;;;;;;;3.25;57.33;96170.09;5009867;28;20183;-79
2021/04/16 13:43:33;;;;;;;3.60;3.20;;;;;;;3.12;56.79;96172.56;5002646;28;20184;-79
2021/04/16 13:46:01;;;;;;;4.63;4.23;;;;;;;3.12;56.46;96162.28;4993713;28;20209;-77
2021/04/16 13:48:26;;;;;;;5.40;4.10;;;;;;;3.15;57.01;96162.09;4996842;28;20575;-78
2021/04/16 13:50:52;;;;;;;5.50;3.90;;;;;;;3.06;57.22;96175.47;5005037;28;20171;-79
2021/04/16 13:53:18;;;;;;;5.33;4.20;;;;;;;3.22;56.75;96172.84;5008035;28;20237;-79
2021/04/16 13:55:43;;;;;;;4.40;3.47;;;;;;;2.81;57.74;96166.56;5003690;28;20364;-82
2021/04/16 13:58:08;;;;;;;5.07;3.80;;;;;;;3.14;57.10;96160.47;4982207;28;20574;-79